sensor_id;sensor_type;location;lat;lon;timestamp;P1;durP1;ratioP1;P2;durP2;ratioP2
56045;SDS011;41913;51.030;3.706;2023-03-11T00:00:20;0.73;;;0.47;;
56045;SDS011;41913;51.030;3.706;2023-03-11T00:02:47;0.40;;;0.40;;
56045;SDS011;41913;51.030;3.706;2023-03-11T00:05:18;0.60;;;0.60;;
56045;SDS011;41913;51.030;3.706;2023-03-11T00:07:46;0.60;;;0.60;;
56045;SDS011;41913;51.030;3.706;2023-03-11T00:10:18;0.25;;;0.25;;
56045;SDS011;41913;51.030;3.706;2023-03-11T00:12:45;0.40;;;0.40;;
56045;SDS011;41913;51.030;3.706;2023-03-11T00:15:11;0.90;;;0.40;;
56045;SDS011;41913;51.030;3.706;2023-03-11T00:17:37;0.52;;;0.52;;
56045;SDS011;41913;51.030;3.706;2023-03-11T00:20:04;0.60;;;0.45;;
56045;SDS011;41913;51.030;3.706;2023-03-11T00:22:31;0.73;;;0.60;;
56045;SDS011;41913;51.030;3.706;2023-03-11T00:24:57;0.45;;;0.45;;
56045;SDS011;41913;51.030;3.706;2023-03-11T00:27:23;0.60;;;0.60;;
56045;SDS011;41913;51.030;3.706;2023-03-11T00:29:48;0.70;;;0.45;;
56045;SDS011;41913;51.030;3.706;2023-03-11T00:32:14;0.65;;;0.60;;
56045;SDS011;41913;51.030;3.706;2023-03-11T00:34:40;0.50;;;0.50;;
56045;SDS011;41913;51.030;3.706;2023-03-11T00:37:06;0.60;;;0.57;;
56045;SDS011;41913;51.030;3.706;2023-03-11T00:39:32;0.63;;;0.60;;
56045;SDS011;41913;51.030;3.706;2023-03-11T00:41:58;0.57;;;0.40;;
56045;SDS011;41913;51.030;3.706;2023-03-11T00:44:23;0.68;;;0.68;;
56045;SDS011;41913;51.030;3.706;2023-03-11T00:46:49;0.50;;;0.50;;
56045;SDS011;41913;51.030;3.706;2023-03-11T00:49:15;0.43;;;0.43;;
56045;SDS011;41913;51.030;3.706;2023-03-11T00:51:41;0.73;;;0.73;;
56045;SDS011;41913;51.030;3.706;2023-03-11T00:54:06;0.98;;;0.55;;
56045;SDS011;41913;51.030;3.706;2023-03-11T00:56:34;0.50;;;0.50;;
56045;SDS011;41913;51.030;3.706;2023-03-11T00:59:00;0.60;;;0.60;;
56045;SDS011;41913;51.030;3.706;2023-03-11T01:01:25;1.38;;;0.63;;
56045;SDS011;41913;51.030;3.706;2023-03-11T01:03:51;0.38;;;0.38;;
56045;SDS011;41913;51.030;3.706;2023-03-11T01:06:17;2.25;;;0.57;;
56045;SDS011;41913;51.030;3.706;2023-03-11T01:08:43;0.73;;;0.73;;
56045;SDS011;41913;51.030;3.706;2023-03-11T01:11:09;0.50;;;0.50;;
56045;SDS011;41913;51.030;3.706;2023-03-11T01:13:35;0.70;;;0.50;;
56045;SDS011;41913;51.030;3.706;2023-03-11T01:16:01;0.88;;;0.60;;
56045;SDS011;41913;51.030;3.706;2023-03-11T01:18:27;1.65;;;0.60;;
56045;SDS011;41913;51.030;3.706;2023-03-11T01:20:55;0.50;;;0.50;;
56045;SDS011;41913;51.030;3.706;2023-03-11T01:23:21;2.53;;;0.73;;
56045;SDS011;41913;51.030;3.706;2023-03-11T01:25:48;0.47;;;0.47;;
56045;SDS011;41913;51.030;3.706;2023-03-11T01:28:14;1.42;;;0.47;;
56045;SDS011;41913;51.030;3.706;2023-03-11T01:30:40;0.60;;;0.60;;
56045;SDS011;41913;51.030;3.706;2023-03-11T01:33:07;0.70;;;0.45;;
56045;SDS011;41913;51.030;3.706;2023-03-11T01:35:37;0.40;;;0.40;;
56045;SDS011;41913;51.030;3.706;2023-03-11T01:38:04;0.50;;;0.50;;
56045;SDS011;41913;51.030;3.706;2023-03-11T01:40:37;0.70;;;0.60;;
56045;SDS011;41913;51.030;3.706;2023-03-11T01:46:26;0.70;;;0.68;;
56045;SDS011;41913;51.030;3.706;2023-03-11T01:49:10;0.45;;;0.45;;
56045;SDS011;41913;51.030;3.706;2023-03-11T01:51:37;0.47;;;0.47;;
56045;SDS011;41913;51.030;3.706;2023-03-11T01:54:12;1.27;;;0.77;;
56045;SDS011;41913;51.030;3.706;2023-03-11T01:59:09;0.52;;;0.52;;
56045;SDS011;41913;51.030;3.706;2023-03-11T02:01:37;0.60;;;0.60;;
56045;SDS011;41913;51.030;3.706;2023-03-11T02:04:12;0.57;;;0.57;;
56045;SDS011;41913;51.030;3.706;2023-03-11T02:06:39;0.47;;;0.47;;
56045;SDS011;41913;51.030;3.706;2023-03-11T02:09:04;0.50;;;0.50;;
56045;SDS011;41913;51.030;3.706;2023-03-11T02:11:31;0.50;;;0.50;;
56045;SDS011;41913;51.030;3.706;2023-03-11T02:13:58;0.70;;;0.40;;
56045;SDS011;41913;51.030;3.706;2023-03-11T02:16:28;0.63;;;0.55;;
56045;SDS011;41913;51.030;3.706;2023-03-11T02:18:54;0.93;;;0.50;;
56045;SDS011;41913;51.030;3.706;2023-03-11T02:21:29;0.57;;;0.52;;
56045;SDS011;41913;51.030;3.706;2023-03-11T02:27:00;0.50;;;0.50;;
56045;SDS011;41913;51.030;3.706;2023-03-11T02:29:30;0.40;;;0.40;;
56045;SDS011;41913;51.030;3.706;2023-03-11T02:31:58;0.38;;;0.38;;
56045;SDS011;41913;51.030;3.706;2023-03-11T02:34:28;0.40;;;0.40;;
56045;SDS011;41913;51.030;3.706;2023-03-11T02:36:58;0.30;;;0.30;;
56045;SDS011;41913;51.030;3.706;2023-03-11T02:39:28;0.32;;;0.32;;
56045;SDS011;41913;51.030;3.706;2023-03-11T02:41:55;0.20;;;0.20;;
56045;SDS011;41913;51.030;3.706;2023-03-11T02:44:22;0.40;;;0.40;;
56045;SDS011;41913;51.030;3.706;2023-03-11T02:46:48;1.02;;;0.50;;
56045;SDS011;41913;51.030;3.706;2023-03-11T02:49:17;0.90;;;0.60;;
56045;SDS011;41913;51.030;3.706;2023-03-11T02:51:44;0.50;;;0.50;;
56045;SDS011;41913;51.030;3.706;2023-03-11T02:54:10;0.45;;;0.30;;
56045;SDS011;41913;51.030;3.706;2023-03-11T02:56:36;0.40;;;0.40;;
56045;SDS011;41913;51.030;3.706;2023-03-11T02:59:01;0.73;;;0.45;;
56045;SDS011;41913;51.030;3.706;2023-03-11T03:01:27;0.17;;;0.17;;
56045;SDS011;41913;51.030;3.706;2023-03-11T03:03:53;0.40;;;0.40;;
56045;SDS011;41913;51.030;3.706;2023-03-11T03:06:18;0.30;;;0.30;;
56045;SDS011;41913;51.030;3.706;2023-03-11T03:08:45;0.25;;;0.25;;
56045;SDS011;41913;51.030;3.706;2023-03-11T03:11:11;0.25;;;0.25;;
56045;SDS011;41913;51.030;3.706;2023-03-11T03:13:37;0.20;;;0.20;;
56045;SDS011;41913;51.030;3.706;2023-03-11T03:16:02;0.20;;;0.20;;
56045;SDS011;41913;51.030;3.706;2023-03-11T03:18:28;0.28;;;0.28;;
56045;SDS011;41913;51.030;3.706;2023-03-11T03:20:54;0.90;;;0.50;;
56045;SDS011;41913;51.030;3.706;2023-03-11T03:23:21;0.40;;;0.40;;
56045;SDS011;41913;51.030;3.706;2023-03-11T03:25:48;0.35;;;0.35;;
56045;SDS011;41913;51.030;3.706;2023-03-11T03:28:15;0.30;;;0.30;;
56045;SDS011;41913;51.030;3.706;2023-03-11T03:30:40;0.20;;;0.20;;
56045;SDS011;41913;51.030;3.706;2023-03-11T03:33:06;0.20;;;0.20;;
56045;SDS011;41913;51.030;3.706;2023-03-11T03:35:32;0.30;;;0.30;;
56045;SDS011;41913;51.030;3.706;2023-03-11T03:38:00;0.68;;;0.22;;
56045;SDS011;41913;51.030;3.706;2023-03-11T03:40:26;0.50;;;0.40;;
56045;SDS011;41913;51.030;3.706;2023-03-11T03:42:53;0.20;;;0.20;;
56045;SDS011;41913;51.030;3.706;2023-03-11T03:45:19;0.30;;;0.30;;
56045;SDS011;41913;51.030;3.706;2023-03-11T03:47:45;0.20;;;0.20;;
56045;SDS011;41913;51.030;3.706;2023-03-11T03:50:11;0.30;;;0.30;;
56045;SDS011;41913;51.030;3.706;2023-03-11T03:52:37;0.88;;;0.60;;
56045;SDS011;41913;51.030;3.706;2023-03-11T03:55:03;0.25;;;0.25;;
56045;SDS011;41913;51.030;3.706;2023-03-11T03:57:30;0.40;;;0.40;;
56045;SDS011;41913;51.030;3.706;2023-03-11T03:59:55;0.43;;;0.43;;
56045;SDS011;41913;51.030;3.706;2023-03-11T04:02:21;0.40;;;0.40;;
56045;SDS011;41913;51.030;3.706;2023-03-11T04:04:47;0.20;;;0.20;;
56045;SDS011;41913;51.030;3.706;2023-03-11T04:07:13;0.45;;;0.45;;
56045;SDS011;41913;51.030;3.706;2023-03-11T04:09:39;0.38;;;0.38;;
56045;SDS011;41913;51.030;3.706;2023-03-11T04:12:07;0.30;;;0.30;;
56045;SDS011;41913;51.030;3.706;2023-03-11T04:14:37;0.25;;;0.25;;
56045;SDS011;41913;51.030;3.706;2023-03-11T04:17:02;0.30;;;0.30;;
56045;SDS011;41913;51.030;3.706;2023-03-11T04:19:28;0.40;;;0.40;;
56045;SDS011;41913;51.030;3.706;2023-03-11T04:21:54;0.30;;;0.30;;
56045;SDS011;41913;51.030;3.706;2023-03-11T04:24:19;0.32;;;0.20;;
56045;SDS011;41913;51.030;3.706;2023-03-11T04:26:45;0.38;;;0.35;;
56045;SDS011;41913;51.030;3.706;2023-03-11T04:29:10;0.50;;;0.50;;
56045;SDS011;41913;51.030;3.706;2023-03-11T04:31:36;0.77;;;0.40;;
56045;SDS011;41913;51.030;3.706;2023-03-11T04:34:02;0.40;;;0.40;;
56045;SDS011;41913;51.030;3.706;2023-03-11T04:36:27;0.50;;;0.50;;
56045;SDS011;41913;51.030;3.706;2023-03-11T04:38:54;0.43;;;0.32;;
56045;SDS011;41913;51.030;3.706;2023-03-11T04:41:21;0.75;;;0.30;;
56045;SDS011;41913;51.030;3.706;2023-03-11T04:43:46;0.30;;;0.30;;
56045;SDS011;41913;51.030;3.706;2023-03-11T04:46:12;0.40;;;0.40;;
56045;SDS011;41913;51.030;3.706;2023-03-11T04:48:38;1.45;;;0.47;;
56045;SDS011;41913;51.030;3.706;2023-03-11T04:51:04;0.47;;;0.47;;
56045;SDS011;41913;51.030;3.706;2023-03-11T04:53:29;0.40;;;0.40;;
56045;SDS011;41913;51.030;3.706;2023-03-11T04:55:55;0.65;;;0.57;;
56045;SDS011;41913;51.030;3.706;2023-03-11T04:58:21;0.47;;;0.47;;
56045;SDS011;41913;51.030;3.706;2023-03-11T05:00:46;0.50;;;0.50;;
56045;SDS011;41913;51.030;3.706;2023-03-11T05:03:12;0.75;;;0.60;;
56045;SDS011;41913;51.030;3.706;2023-03-11T05:05:38;0.40;;;0.40;;
56045;SDS011;41913;51.030;3.706;2023-03-11T05:08:04;0.40;;;0.40;;
56045;SDS011;41913;51.030;3.706;2023-03-11T05:10:30;0.40;;;0.40;;
56045;SDS011;41913;51.030;3.706;2023-03-11T05:12:57;0.45;;;0.45;;
56045;SDS011;41913;51.030;3.706;2023-03-11T05:15:23;0.30;;;0.30;;
56045;SDS011;41913;51.030;3.706;2023-03-11T05:17:49;0.55;;;0.55;;
56045;SDS011;41913;51.030;3.706;2023-03-11T05:20:14;0.47;;;0.47;;
56045;SDS011;41913;51.030;3.706;2023-03-11T05:22:40;0.40;;;0.40;;
56045;SDS011;41913;51.030;3.706;2023-03-11T05:25:06;0.75;;;0.43;;
56045;SDS011;41913;51.030;3.706;2023-03-11T05:27:32;0.30;;;0.30;;
56045;SDS011;41913;51.030;3.706;2023-03-11T05:29:58;0.30;;;0.30;;
56045;SDS011;41913;51.030;3.706;2023-03-11T05:32:23;0.40;;;0.40;;
56045;SDS011;41913;51.030;3.706;2023-03-11T05:34:49;0.50;;;0.50;;
56045;SDS011;41913;51.030;3.706;2023-03-11T05:37:16;0.40;;;0.40;;
56045;SDS011;41913;51.030;3.706;2023-03-11T05:39:42;0.57;;;0.57;;
56045;SDS011;41913;51.030;3.706;2023-03-11T05:42:07;0.40;;;0.40;;
56045;SDS011;41913;51.030;3.706;2023-03-11T05:44:34;0.73;;;0.70;;
56045;SDS011;41913;51.030;3.706;2023-03-11T05:47:01;0.32;;;0.32;;
56045;SDS011;41913;51.030;3.706;2023-03-11T05:49:27;0.50;;;0.50;;
56045;SDS011;41913;51.030;3.706;2023-03-11T05:51:53;0.55;;;0.50;;
56045;SDS011;41913;51.030;3.706;2023-03-11T05:54:19;0.50;;;0.50;;
56045;SDS011;41913;51.030;3.706;2023-03-11T05:56:45;1.17;;;0.68;;
56045;SDS011;41913;51.030;3.706;2023-03-11T05:59:12;0.50;;;0.50;;
56045;SDS011;41913;51.030;3.706;2023-03-11T06:01:39;0.50;;;0.50;;
56045;SDS011;41913;51.030;3.706;2023-03-11T06:04:05;2.20;;;0.55;;
56045;SDS011;41913;51.030;3.706;2023-03-11T06:06:31;1.40;;;0.40;;
56045;SDS011;41913;51.030;3.706;2023-03-11T06:08:57;0.40;;;0.40;;
56045;SDS011;41913;51.030;3.706;2023-03-11T06:11:23;0.63;;;0.55;;
56045;SDS011;41913;51.030;3.706;2023-03-11T06:13:54;0.30;;;0.25;;
56045;SDS011;41913;51.030;3.706;2023-03-11T06:16:23;0.43;;;0.43;;
56045;SDS011;41913;51.030;3.706;2023-03-11T06:18:49;0.50;;;0.50;;
56045;SDS011;41913;51.030;3.706;2023-03-11T06:21:17;0.35;;;0.35;;
56045;SDS011;41913;51.030;3.706;2023-03-11T06:23:46;0.60;;;0.60;;
56045;SDS011;41913;51.030;3.706;2023-03-11T06:26:13;0.60;;;0.60;;
56045;SDS011;41913;51.030;3.706;2023-03-11T06:28:44;0.45;;;0.45;;
56045;SDS011;41913;51.030;3.706;2023-03-11T06:31:29;0.73;;;0.50;;
56045;SDS011;41913;51.030;3.706;2023-03-11T06:33:55;1.40;;;0.60;;
56045;SDS011;41913;51.030;3.706;2023-03-11T06:36:21;0.40;;;0.40;;
56045;SDS011;41913;51.030;3.706;2023-03-11T06:38:47;0.85;;;0.40;;
56045;SDS011;41913;51.030;3.706;2023-03-11T06:41:16;0.55;;;0.55;;
56045;SDS011;41913;51.030;3.706;2023-03-11T06:43:42;0.70;;;0.50;;
56045;SDS011;41913;51.030;3.706;2023-03-11T06:46:12;0.43;;;0.43;;
56045;SDS011;41913;51.030;3.706;2023-03-11T06:48:40;0.63;;;0.63;;
56045;SDS011;41913;51.030;3.706;2023-03-11T06:51:08;1.48;;;1.00;;
56045;SDS011;41913;51.030;3.706;2023-03-11T06:53:34;0.45;;;0.45;;
56045;SDS011;41913;51.030;3.706;2023-03-11T06:56:03;0.70;;;0.70;;
56045;SDS011;41913;51.030;3.706;2023-03-11T06:58:29;0.77;;;0.77;;
56045;SDS011;41913;51.030;3.706;2023-03-11T07:01:03;1.25;;;0.70;;
56045;SDS011;41913;51.030;3.706;2023-03-11T07:03:29;0.70;;;0.70;;
56045;SDS011;41913;51.030;3.706;2023-03-11T07:05:55;1.27;;;0.70;;
56045;SDS011;41913;51.030;3.706;2023-03-11T07:08:21;0.65;;;0.65;;
56045;SDS011;41913;51.030;3.706;2023-03-11T07:10:57;2.40;;;0.77;;
56045;SDS011;41913;51.030;3.706;2023-03-11T07:13:27;1.65;;;0.75;;
56045;SDS011;41913;51.030;3.706;2023-03-11T07:16:00;0.52;;;0.43;;
56045;SDS011;41913;51.030;3.706;2023-03-11T07:18:36;3.05;;;0.80;;
56045;SDS011;41913;51.030;3.706;2023-03-11T07:21:03;2.40;;;0.50;;
56045;SDS011;41913;51.030;3.706;2023-03-11T07:23:30;0.60;;;0.60;;
56045;SDS011;41913;51.030;3.706;2023-03-11T07:25:56;0.65;;;0.65;;
56045;SDS011;41913;51.030;3.706;2023-03-11T07:28:22;0.75;;;0.75;;
56045;SDS011;41913;51.030;3.706;2023-03-11T07:30:49;0.50;;;0.50;;
56045;SDS011;41913;51.030;3.706;2023-03-11T07:33:16;0.60;;;0.60;;
56045;SDS011;41913;51.030;3.706;2023-03-11T07:35:42;0.73;;;0.70;;
56045;SDS011;41913;51.030;3.706;2023-03-11T07:38:08;1.95;;;0.70;;
56045;SDS011;41913;51.030;3.706;2023-03-11T07:40:34;0.70;;;0.70;;
56045;SDS011;41913;51.030;3.706;2023-03-11T07:43:00;0.55;;;0.55;;
56045;SDS011;41913;51.030;3.706;2023-03-11T07:45:25;0.40;;;0.40;;
56045;SDS011;41913;51.030;3.706;2023-03-11T07:47:51;0.32;;;0.32;;
56045;SDS011;41913;51.030;3.706;2023-03-11T07:50:17;0.65;;;0.60;;
56045;SDS011;41913;51.030;3.706;2023-03-11T07:52:46;0.60;;;0.60;;
56045;SDS011;41913;51.030;3.706;2023-03-11T07:55:12;1.15;;;0.75;;
56045;SDS011;41913;51.030;3.706;2023-03-11T07:57:38;0.55;;;0.55;;
56045;SDS011;41913;51.030;3.706;2023-03-11T08:00:03;0.50;;;0.50;;
56045;SDS011;41913;51.030;3.706;2023-03-11T08:02:30;2.20;;;0.82;;
56045;SDS011;41913;51.030;3.706;2023-03-11T08:04:55;0.50;;;0.50;;
56045;SDS011;41913;51.030;3.706;2023-03-11T08:07:21;0.85;;;0.75;;
56045;SDS011;41913;51.030;3.706;2023-03-11T08:09:47;0.70;;;0.70;;
56045;SDS011;41913;51.030;3.706;2023-03-11T08:12:13;0.65;;;0.55;;
56045;SDS011;41913;51.030;3.706;2023-03-11T08:14:40;0.80;;;0.80;;
56045;SDS011;41913;51.030;3.706;2023-03-11T08:17:08;0.57;;;0.52;;
56045;SDS011;41913;51.030;3.706;2023-03-11T08:19:34;3.35;;;0.90;;
56045;SDS011;41913;51.030;3.706;2023-03-11T08:22:03;1.08;;;1.00;;
56045;SDS011;41913;51.030;3.706;2023-03-11T08:24:29;0.85;;;0.85;;
56045;SDS011;41913;51.030;3.706;2023-03-11T08:26:55;1.20;;;1.15;;
56045;SDS011;41913;51.030;3.706;2023-03-11T08:29:22;1.73;;;1.00;;
56045;SDS011;41913;51.030;3.706;2023-03-11T08:31:48;0.98;;;0.98;;
56045;SDS011;41913;51.030;3.706;2023-03-11T08:34:14;1.08;;;1.08;;
56045;SDS011;41913;51.030;3.706;2023-03-11T08:36:40;1.55;;;1.45;;
56045;SDS011;41913;51.030;3.706;2023-03-11T08:39:06;1.52;;;1.42;;
56045;SDS011;41913;51.030;3.706;2023-03-11T08:41:32;1.15;;;1.15;;
56045;SDS011;41913;51.030;3.706;2023-03-11T08:43:57;0.90;;;0.90;;
56045;SDS011;41913;51.030;3.706;2023-03-11T08:51:22;2.88;;;0.90;;
56045;SDS011;41913;51.030;3.706;2023-03-11T08:53:49;1.83;;;1.10;;
56045;SDS011;41913;51.030;3.706;2023-03-11T08:56:15;9.40;;;2.05;;
56045;SDS011;41913;51.030;3.706;2023-03-11T08:58:41;10.10;;;2.17;;
56045;SDS011;41913;51.030;3.706;2023-03-11T09:01:07;10.38;;;2.60;;
56045;SDS011;41913;51.030;3.706;2023-03-11T09:03:35;12.68;;;2.92;;
56045;SDS011;41913;51.030;3.706;2023-03-11T09:06:03;13.27;;;2.35;;
56045;SDS011;41913;51.030;3.706;2023-03-11T09:08:30;6.63;;;2.28;;
56045;SDS011;41913;51.030;3.706;2023-03-11T09:10:56;3.78;;;1.77;;
56045;SDS011;41913;51.030;3.706;2023-03-11T09:13:22;4.40;;;1.67;;
56045;SDS011;41913;51.030;3.706;2023-03-11T09:15:48;6.05;;;1.70;;
56045;SDS011;41913;51.030;3.706;2023-03-11T09:18:15;3.95;;;1.42;;
56045;SDS011;41913;51.030;3.706;2023-03-11T09:20:41;6.13;;;1.50;;
56045;SDS011;41913;51.030;3.706;2023-03-11T09:23:08;5.80;;;2.05;;
56045;SDS011;41913;51.030;3.706;2023-03-11T09:25:35;13.90;;;2.65;;
56045;SDS011;41913;51.030;3.706;2023-03-11T09:28:00;6.90;;;1.42;;
56045;SDS011;41913;51.030;3.706;2023-03-11T09:30:26;1.50;;;1.40;;
56045;SDS011;41913;51.030;3.706;2023-03-11T09:32:52;1.80;;;1.33;;
56045;SDS011;41913;51.030;3.706;2023-03-11T09:35:18;6.22;;;1.42;;
56045;SDS011;41913;51.030;3.706;2023-03-11T09:37:44;13.25;;;2.92;;
56045;SDS011;41913;51.030;3.706;2023-03-11T09:40:14;14.88;;;2.75;;
56045;SDS011;41913;51.030;3.706;2023-03-11T09:45:23;12.70;;;2.50;;
56045;SDS011;41913;51.030;3.706;2023-03-11T09:47:58;4.80;;;1.92;;
56045;SDS011;41913;51.030;3.706;2023-03-11T10:01:00;5.47;;;1.33;;
56045;SDS011;41913;51.030;3.706;2023-03-11T10:03:33;1.70;;;0.82;;
56045;SDS011;41913;51.030;3.706;2023-03-11T10:06:41;4.38;;;1.20;;
56045;SDS011;41913;51.030;3.706;2023-03-11T10:15:34;1.58;;;0.70;;
56045;SDS011;41913;51.030;3.706;2023-03-11T10:17:51;0.90;;;0.90;;
56045;SDS011;41913;51.030;3.706;2023-03-11T10:20:45;0.98;;;0.98;;
56045;SDS011;41913;51.030;3.706;2023-03-11T10:24:00;1.13;;;0.63;;
56045;SDS011;41913;51.030;3.706;2023-03-11T10:26:58;0.98;;;0.85;;
56045;SDS011;41913;51.030;3.706;2023-03-11T10:32:19;0.85;;;0.55;;
56045;SDS011;41913;51.030;3.706;2023-03-11T10:35:09;0.52;;;0.50;;
56045;SDS011;41913;51.030;3.706;2023-03-11T10:37:50;1.25;;;0.65;;
56045;SDS011;41913;51.030;3.706;2023-03-11T10:40:32;0.38;;;0.35;;
56045;SDS011;41913;51.030;3.706;2023-03-11T10:43:02;1.65;;;0.93;;
56045;SDS011;41913;51.030;3.706;2023-03-11T10:45:40;0.45;;;0.43;;
56045;SDS011;41913;51.030;3.706;2023-03-11T10:48:15;1.25;;;0.68;;
56045;SDS011;41913;51.030;3.706;2023-03-11T10:51:01;2.65;;;0.80;;
56045;SDS011;41913;51.030;3.706;2023-03-11T10:53:57;0.52;;;0.52;;
56045;SDS011;41913;51.030;3.706;2023-03-11T10:58:59;2.83;;;0.52;;
56045;SDS011;41913;51.030;3.706;2023-03-11T11:01:26;0.50;;;0.47;;
56045;SDS011;41913;51.030;3.706;2023-03-11T11:03:53;0.38;;;0.35;;
56045;SDS011;41913;51.030;3.706;2023-03-11T11:06:25;0.57;;;0.45;;
56045;SDS011;41913;51.030;3.706;2023-03-11T11:11:30;0.40;;;0.40;;
56045;SDS011;41913;51.030;3.706;2023-03-11T11:13:57;0.70;;;0.70;;
56045;SDS011;41913;51.030;3.706;2023-03-11T11:16:24;0.47;;;0.45;;
56045;SDS011;41913;51.030;3.706;2023-03-11T11:19:02;0.30;;;0.30;;
56045;SDS011;41913;51.030;3.706;2023-03-11T11:21:42;0.90;;;0.30;;
56045;SDS011;41913;51.030;3.706;2023-03-11T11:29:46;0.70;;;0.68;;
56045;SDS011;41913;51.030;3.706;2023-03-11T11:32:26;0.32;;;0.32;;
56045;SDS011;41913;51.030;3.706;2023-03-11T11:35:13;0.20;;;0.20;;
56045;SDS011;41913;51.030;3.706;2023-03-11T11:38:00;0.47;;;0.30;;
56045;SDS011;41913;51.030;3.706;2023-03-11T11:40:27;0.40;;;0.40;;
56045;SDS011;41913;51.030;3.706;2023-03-11T11:43:05;0.47;;;0.35;;
56045;SDS011;41913;51.030;3.706;2023-03-11T11:45:45;0.47;;;0.45;;
56045;SDS011;41913;51.030;3.706;2023-03-11T11:48:56;0.30;;;0.30;;
56045;SDS011;41913;51.030;3.706;2023-03-11T11:51:25;0.47;;;0.22;;
56045;SDS011;41913;51.030;3.706;2023-03-11T11:56:35;1.05;;;0.40;;
56045;SDS011;41913;51.030;3.706;2023-03-11T11:59:00;0.40;;;0.40;;
56045;SDS011;41913;51.030;3.706;2023-03-11T12:01:34;0.43;;;0.40;;
56045;SDS011;41913;51.030;3.706;2023-03-11T12:09:29;0.40;;;0.35;;
56045;SDS011;41913;51.030;3.706;2023-03-11T12:17:43;0.25;;;0.25;;
56045;SDS011;41913;51.030;3.706;2023-03-11T12:20:26;0.90;;;0.60;;
56045;SDS011;41913;51.030;3.706;2023-03-11T12:25:39;0.30;;;0.30;;
56045;SDS011;41913;51.030;3.706;2023-03-11T12:28:15;0.25;;;0.25;;
56045;SDS011;41913;51.030;3.706;2023-03-11T12:30:51;0.20;;;0.20;;
56045;SDS011;41913;51.030;3.706;2023-03-11T12:35:54;0.95;;;0.40;;
56045;SDS011;41913;51.030;3.706;2023-03-11T12:46:03;1.20;;;0.40;;
56045;SDS011;41913;51.030;3.706;2023-03-11T12:48:45;0.40;;;0.40;;
56045;SDS011;41913;51.030;3.706;2023-03-11T12:53:52;0.50;;;0.30;;
56045;SDS011;41913;51.030;3.706;2023-03-11T12:59:13;0.38;;;0.38;;
56045;SDS011;41913;51.030;3.706;2023-03-11T13:09:41;0.30;;;0.30;;
56045;SDS011;41913;51.030;3.706;2023-03-11T13:28:23;0.20;;;0.20;;
56045;SDS011;41913;51.030;3.706;2023-03-11T13:33:56;0.30;;;0.30;;
56045;SDS011;41913;51.030;3.706;2023-03-11T13:36:41;1.05;;;0.30;;
56045;SDS011;41913;51.030;3.706;2023-03-11T13:39:44;0.10;;;0.10;;
56045;SDS011;41913;51.030;3.706;2023-03-11T13:42:36;2.05;;;0.20;;
56045;SDS011;41913;51.030;3.706;2023-03-11T13:45:11;0.50;;;0.50;;
56045;SDS011;41913;51.030;3.706;2023-03-11T13:47:47;0.20;;;0.20;;
56045;SDS011;41913;51.030;3.706;2023-03-11T13:50:19;0.30;;;0.28;;
56045;SDS011;41913;51.030;3.706;2023-03-11T13:52:55;0.20;;;0.20;;
56045;SDS011;41913;51.030;3.706;2023-03-11T13:57:59;0.65;;;0.65;;
56045;SDS011;41913;51.030;3.706;2023-03-11T14:00:27;0.47;;;0.40;;
56045;SDS011;41913;51.030;3.706;2023-03-11T14:07:53;0.93;;;0.70;;
56045;SDS011;41913;51.030;3.706;2023-03-11T14:10:21;0.45;;;0.45;;
56045;SDS011;41913;51.030;3.706;2023-03-11T14:12:48;0.30;;;0.30;;
56045;SDS011;41913;51.030;3.706;2023-03-11T14:15:19;0.80;;;0.55;;
56045;SDS011;41913;51.030;3.706;2023-03-11T14:17:47;0.60;;;0.40;;
56045;SDS011;41913;51.030;3.706;2023-03-11T14:22:47;0.68;;;0.45;;
56045;SDS011;41913;51.030;3.706;2023-03-11T14:25:19;1.38;;;0.60;;
56045;SDS011;41913;51.030;3.706;2023-03-11T14:27:52;0.20;;;0.20;;
56045;SDS011;41913;51.030;3.706;2023-03-11T14:30:29;1.55;;;0.35;;
56045;SDS011;41913;51.030;3.706;2023-03-11T14:32:58;0.30;;;0.30;;
56045;SDS011;41913;51.030;3.706;2023-03-11T14:35:39;1.23;;;0.30;;
56045;SDS011;41913;51.030;3.706;2023-03-11T14:38:04;0.30;;;0.30;;
56045;SDS011;41913;51.030;3.706;2023-03-11T14:40:48;0.30;;;0.30;;
56045;SDS011;41913;51.030;3.706;2023-03-11T14:43:17;2.58;;;0.65;;
56045;SDS011;41913;51.030;3.706;2023-03-11T14:45:44;0.20;;;0.20;;
56045;SDS011;41913;51.030;3.706;2023-03-11T14:48:21;0.25;;;0.25;;
56045;SDS011;41913;51.030;3.706;2023-03-11T14:50:52;0.45;;;0.45;;
56045;SDS011;41913;51.030;3.706;2023-03-11T14:53:25;0.80;;;0.50;;
56045;SDS011;41913;51.030;3.706;2023-03-11T15:01:04;0.63;;;0.13;;
56045;SDS011;41913;51.030;3.706;2023-03-11T15:03:55;0.32;;;0.32;;
56045;SDS011;41913;51.030;3.706;2023-03-11T15:06:29;1.13;;;0.38;;
56045;SDS011;41913;51.030;3.706;2023-03-11T15:08:57;0.30;;;0.30;;
56045;SDS011;41913;51.030;3.706;2023-03-11T15:11:24;0.40;;;0.40;;
56045;SDS011;41913;51.030;3.706;2023-03-11T15:13:52;0.28;;;0.28;;
56045;SDS011;41913;51.030;3.706;2023-03-11T15:16:24;0.30;;;0.30;;
56045;SDS011;41913;51.030;3.706;2023-03-11T15:21:19;0.28;;;0.28;;
56045;SDS011;41913;51.030;3.706;2023-03-11T15:23:49;0.40;;;0.40;;
56045;SDS011;41913;51.030;3.706;2023-03-11T15:26:27;0.25;;;0.25;;
56045;SDS011;41913;51.030;3.706;2023-03-11T15:28:59;0.20;;;0.20;;
56045;SDS011;41913;51.030;3.706;2023-03-11T15:31:36;0.30;;;0.30;;
56045;SDS011;41913;51.030;3.706;2023-03-11T15:41:43;0.45;;;0.45;;
56045;SDS011;41913;51.030;3.706;2023-03-11T15:44:29;0.65;;;0.22;;
56045;SDS011;41913;51.030;3.706;2023-03-11T15:47:06;0.20;;;0.20;;
56045;SDS011;41913;51.030;3.706;2023-03-11T15:49:37;0.50;;;0.50;;
56045;SDS011;41913;51.030;3.706;2023-03-11T15:52:03;0.20;;;0.20;;
56045;SDS011;41913;51.030;3.706;2023-03-11T15:54:29;0.20;;;0.20;;
56045;SDS011;41913;51.030;3.706;2023-03-11T15:56:55;0.80;;;0.28;;
56045;SDS011;41913;51.030;3.706;2023-03-11T15:59:23;0.80;;;0.20;;
56045;SDS011;41913;51.030;3.706;2023-03-11T16:01:49;0.32;;;0.32;;
56045;SDS011;41913;51.030;3.706;2023-03-11T16:04:18;0.15;;;0.15;;
56045;SDS011;41913;51.030;3.706;2023-03-11T16:06:45;1.30;;;0.22;;
56045;SDS011;41913;51.030;3.706;2023-03-11T16:09:12;1.88;;;0.30;;
56045;SDS011;41913;51.030;3.706;2023-03-11T16:11:38;0.20;;;0.20;;
56045;SDS011;41913;51.030;3.706;2023-03-11T16:14:05;0.65;;;0.30;;
56045;SDS011;41913;51.030;3.706;2023-03-11T16:16:34;0.50;;;0.30;;
56045;SDS011;41913;51.030;3.706;2023-03-11T16:18:59;0.52;;;0.30;;
56045;SDS011;41913;51.030;3.706;2023-03-11T16:21:28;1.05;;;0.40;;
56045;SDS011;41913;51.030;3.706;2023-03-11T16:23:59;0.25;;;0.22;;
56045;SDS011;41913;51.030;3.706;2023-03-11T16:26:24;0.60;;;0.40;;
56045;SDS011;41913;51.030;3.706;2023-03-11T16:28:50;0.20;;;0.20;;
56045;SDS011;41913;51.030;3.706;2023-03-11T16:31:16;0.30;;;0.25;;
56045;SDS011;41913;51.030;3.706;2023-03-11T16:33:41;0.20;;;0.20;;
56045;SDS011;41913;51.030;3.706;2023-03-11T16:36:09;0.68;;;0.22;;
56045;SDS011;41913;51.030;3.706;2023-03-11T16:38:40;0.20;;;0.20;;
56045;SDS011;41913;51.030;3.706;2023-03-11T16:41:11;0.20;;;0.20;;
56045;SDS011;41913;51.030;3.706;2023-03-11T16:43:36;1.30;;;0.22;;
56045;SDS011;41913;51.030;3.706;2023-03-11T16:46:02;0.20;;;0.20;;
56045;SDS011;41913;51.030;3.706;2023-03-11T16:48:28;0.20;;;0.20;;
56045;SDS011;41913;51.030;3.706;2023-03-11T16:50:54;0.20;;;0.20;;
56045;SDS011;41913;51.030;3.706;2023-03-11T16:53:19;0.20;;;0.20;;
56045;SDS011;41913;51.030;3.706;2023-03-11T16:55:46;0.30;;;0.30;;
56045;SDS011;41913;51.030;3.706;2023-03-11T16:58:12;0.35;;;0.20;;
56045;SDS011;41913;51.030;3.706;2023-03-11T17:00:38;1.58;;;0.45;;
56045;SDS011;41913;51.030;3.706;2023-03-11T17:03:06;0.40;;;0.30;;
56045;SDS011;41913;51.030;3.706;2023-03-11T17:05:32;0.30;;;0.30;;
56045;SDS011;41913;51.030;3.706;2023-03-11T17:07:58;1.08;;;0.30;;
56045;SDS011;41913;51.030;3.706;2023-03-11T17:10:29;1.13;;;0.30;;